sensor_id;sensor_type;location;lat;lon;timestamp;temperature;humidity
34147;DHT22;20423;49.448;9.056;2023-08-01T00:01:36;14.80;99.90
34147;DHT22;20423;49.448;9.056;2023-08-01T00:04:02;14.80;99.90
34147;DHT22;20423;49.448;9.056;2023-08-01T00:06:27;14.80;99.90
34147;DHT22;20423;49.448;9.056;2023-08-01T00:11:47;14.80;99.90
34147;DHT22;20423;49.448;9.056;2023-08-01T00:14:12;14.80;99.90
34147;DHT22;20423;49.448;9.056;2023-08-01T00:16:38;14.80;99.90
34147;DHT22;20423;49.448;9.056;2023-08-01T00:19:03;14.80;99.90
34147;DHT22;20423;49.448;9.056;2023-08-01T00:21:29;14.80;99.90
34147;DHT22;20423;49.448;9.056;2023-08-01T00:27:25;14.80;99.90
34147;DHT22;20423;49.448;9.056;2023-08-01T00:29:51;14.80;99.90
34147;DHT22;20423;49.448;9.056;2023-08-01T00:32:17;14.80;99.90
34147;DHT22;20423;49.448;9.056;2023-08-01T00:34:43;14.80;99.90
34147;DHT22;20423;49.448;9.056;2023-08-01T00:37:08;14.80;99.90
34147;DHT22;20423;49.448;9.056;2023-08-01T00:39:34;14.80;99.90
34147;DHT22;20423;49.448;9.056;2023-08-01T00:42:00;14.80;99.90
34147;DHT22;20423;49.448;9.056;2023-08-01T00:44:25;14.90;99.90
34147;DHT22;20423;49.448;9.056;2023-08-01T00:46:51;14.80;99.90
34147;DHT22;20423;49.448;9.056;2023-08-01T00:49:16;14.80;99.90
34147;DHT22;20423;49.448;9.056;2023-08-01T00:51:42;14.80;99.90
34147;DHT22;20423;49.448;9.056;2023-08-01T00:57:08;14.80;99.90
34147;DHT22;20423;49.448;9.056;2023-08-01T00:59:34;14.80;99.90
34147;DHT22;20423;49.448;9.056;2023-08-01T01:02:00;14.80;99.90
34147;DHT22;20423;49.448;9.056;2023-08-01T01:04:26;14.80;99.90
34147;DHT22;20423;49.448;9.056;2023-08-01T01:06:57;14.80;99.90
34147;DHT22;20423;49.448;9.056;2023-08-01T01:09:27;14.80;99.90
34147;DHT22;20423;49.448;9.056;2023-08-01T01:11:53;14.90;99.90
34147;DHT22;20423;49.448;9.056;2023-08-01T01:14:19;14.80;99.90
34147;DHT22;20423;49.448;9.056;2023-08-01T01:16:44;14.80;99.90
34147;DHT22;20423;49.448;9.056;2023-08-01T01:19:10;14.90;99.90
34147;DHT22;20423;49.448;9.056;2023-08-01T01:21:35;14.90;99.90
34147;DHT22;20423;49.448;9.056;2023-08-01T01:24:03;14.80;99.90
34147;DHT22;20423;49.448;9.056;2023-08-01T01:26:30;14.80;99.90
34147;DHT22;20423;49.448;9.056;2023-08-01T01:28:56;14.80;99.90
34147;DHT22;20423;49.448;9.056;2023-08-01T01:31:23;14.80;99.90
34147;DHT22;20423;49.448;9.056;2023-08-01T01:33:49;14.80;99.90
34147;DHT22;20423;49.448;9.056;2023-08-01T01:39:43;14.80;99.90
34147;DHT22;20423;49.448;9.056;2023-08-01T01:42:08;14.80;99.90
34147;DHT22;20423;49.448;9.056;2023-08-01T01:44:34;14.80;99.90
34147;DHT22;20423;49.448;9.056;2023-08-01T01:46:59;14.70;99.90
34147;DHT22;20423;49.448;9.056;2023-08-01T01:49:43;14.80;99.90
34147;DHT22;20423;49.448;9.056;2023-08-01T01:52:09;14.80;99.90
34147;DHT22;20423;49.448;9.056;2023-08-01T01:54:35;14.70;99.90
34147;DHT22;20423;49.448;9.056;2023-08-01T01:59:54;14.80;99.90
34147;DHT22;20423;49.448;9.056;2023-08-01T02:02:20;14.80;99.90
34147;DHT22;20423;49.448;9.056;2023-08-01T02:04:46;14.80;99.90
34147;DHT22;20423;49.448;9.056;2023-08-01T02:07:11;14.80;99.90
34147;DHT22;20423;49.448;9.056;2023-08-01T02:09:37;14.80;99.90
34147;DHT22;20423;49.448;9.056;2023-08-01T02:12:03;14.80;99.90
34147;DHT22;20423;49.448;9.056;2023-08-01T02:14:30;14.80;99.90
34147;DHT22;20423;49.448;9.056;2023-08-01T02:16:55;14.80;99.90
34147;DHT22;20423;49.448;9.056;2023-08-01T02:19:21;14.80;99.90
34147;DHT22;20423;49.448;9.056;2023-08-01T02:21:46;14.80;99.90
34147;DHT22;20423;49.448;9.056;2023-08-01T02:24:12;14.80;99.90
34147;DHT22;20423;49.448;9.056;2023-08-01T02:26:38;14.80;99.90
34147;DHT22;20423;49.448;9.056;2023-08-01T02:29:03;14.80;99.90
34147;DHT22;20423;49.448;9.056;2023-08-01T02:31:29;14.80;99.90
34147;DHT22;20423;49.448;9.056;2023-08-01T02:33:55;14.80;99.90
34147;DHT22;20423;49.448;9.056;2023-08-01T02:36:20;14.80;99.90
34147;DHT22;20423;49.448;9.056;2023-08-01T02:38:46;14.80;99.90
34147;DHT22;20423;49.448;9.056;2023-08-01T02:41:11;14.80;99.90
34147;DHT22;20423;49.448;9.056;2023-08-01T02:43:37;14.80;99.90
34147;DHT22;20423;49.448;9.056;2023-08-01T02:46:02;14.80;99.90
34147;DHT22;20423;49.448;9.056;2023-08-01T02:48:28;14.80;99.90
34147;DHT22;20423;49.448;9.056;2023-08-01T02:50:54;14.80;99.90
34147;DHT22;20423;49.448;9.056;2023-08-01T02:53:19;14.80;99.90
34147;DHT22;20423;49.448;9.056;2023-08-01T02:55:45;14.90;99.90
34147;DHT22;20423;49.448;9.056;2023-08-01T02:58:13;14.90;99.90
34147;DHT22;20423;49.448;9.056;2023-08-01T03:00:39;14.90;99.90
34147;DHT22;20423;49.448;9.056;2023-08-01T03:03:06;14.90;99.90
34147;DHT22;20423;49.448;9.056;2023-08-01T03:05:32;14.90;99.90
34147;DHT22;20423;49.448;9.056;2023-08-01T03:07:58;14.90;99.90
34147;DHT22;20423;49.448;9.056;2023-08-01T03:10:24;14.90;99.90
34147;DHT22;20423;49.448;9.056;2023-08-01T03:12:49;14.90;99.90
34147;DHT22;20423;49.448;9.056;2023-08-01T03:15:15;14.90;99.90
34147;DHT22;20423;49.448;9.056;2023-08-01T03:17:40;14.90;99.90
34147;DHT22;20423;49.448;9.056;2023-08-01T03:20:07;14.90;99.90
34147;DHT22;20423;49.448;9.056;2023-08-01T03:22:40;14.90;99.90
34147;DHT22;20423;49.448;9.056;2023-08-01T03:25:06;14.90;99.90
34147;DHT22;20423;49.448;9.056;2023-08-01T03:27:34;14.90;99.90
34147;DHT22;20423;49.448;9.056;2023-08-01T03:30:00;14.90;99.90
34147;DHT22;20423;49.448;9.056;2023-08-01T03:32:26;15.00;99.90
34147;DHT22;20423;49.448;9.056;2023-08-01T03:34:52;14.90;99.90
34147;DHT22;20423;49.448;9.056;2023-08-01T03:37:17;14.90;99.90
34147;DHT22;20423;49.448;9.056;2023-08-01T03:39:43;14.90;99.90
34147;DHT22;20423;49.448;9.056;2023-08-01T03:42:09;14.90;99.90
34147;DHT22;20423;49.448;9.056;2023-08-01T03:44:34;14.90;99.90
34147;DHT22;20423;49.448;9.056;2023-08-01T03:47:00;14.90;99.90
34147;DHT22;20423;49.448;9.056;2023-08-01T03:49:25;14.90;99.90
34147;DHT22;20423;49.448;9.056;2023-08-01T03:51:52;14.90;99.90
34147;DHT22;20423;49.448;9.056;2023-08-01T03:54:36;14.90;99.90
34147;DHT22;20423;49.448;9.056;2023-08-01T03:57:02;14.90;99.90
34147;DHT22;20423;49.448;9.056;2023-08-01T03:59:28;14.90;99.90
34147;DHT22;20423;49.448;9.056;2023-08-01T04:01:53;14.90;99.90
34147;DHT22;20423;49.448;9.056;2023-08-01T04:07:13;14.90;99.90
34147;DHT22;20423;49.448;9.056;2023-08-01T04:09:39;14.90;99.90
34147;DHT22;20423;49.448;9.056;2023-08-01T04:12:04;14.90;99.90
34147;DHT22;20423;49.448;9.056;2023-08-01T04:14:32;14.90;99.90
34147;DHT22;20423;49.448;9.056;2023-08-01T04:16:57;14.90;99.90
34147;DHT22;20423;49.448;9.056;2023-08-01T04:19:23;14.90;99.90
34147;DHT22;20423;49.448;9.056;2023-08-01T04:21:50;14.90;99.90
34147;DHT22;20423;49.448;9.056;2023-08-01T04:24:16;14.90;99.90
34147;DHT22;20423;49.448;9.056;2023-08-01T04:26:41;14.90;99.90
34147;DHT22;20423;49.448;9.056;2023-08-01T04:29:07;14.90;99.90
34147;DHT22;20423;49.448;9.056;2023-08-01T04:31:32;14.90;99.90
34147;DHT22;20423;49.448;9.056;2023-08-01T04:34:03;14.80;99.90
34147;DHT22;20423;49.448;9.056;2023-08-01T04:36:29;14.90;99.90
34147;DHT22;20423;49.448;9.056;2023-08-01T04:38:54;14.90;99.90
34147;DHT22;20423;49.448;9.056;2023-08-01T04:41:20;14.80;99.90
34147;DHT22;20423;49.448;9.056;2023-08-01T04:43:45;14.80;99.90
34147;DHT22;20423;49.448;9.056;2023-08-01T04:46:11;14.80;99.90
34147;DHT22;20423;49.448;9.056;2023-08-01T04:48:37;14.80;99.90
34147;DHT22;20423;49.448;9.056;2023-08-01T04:51:02;14.90;99.90
34147;DHT22;20423;49.448;9.056;2023-08-01T04:53:28;14.80;99.90
34147;DHT22;20423;49.448;9.056;2023-08-01T04:55:54;14.80;99.90
34147;DHT22;20423;49.448;9.056;2023-08-01T04:58:19;14.80;99.90
34147;DHT22;20423;49.448;9.056;2023-08-01T05:00:45;14.80;99.90
34147;DHT22;20423;49.448;9.056;2023-08-01T05:03:10;14.80;99.90
34147;DHT22;20423;49.448;9.056;2023-08-01T05:05:36;14.80;99.90
34147;DHT22;20423;49.448;9.056;2023-08-01T05:08:01;14.80;99.90
34147;DHT22;20423;49.448;9.056;2023-08-01T05:10:27;14.80;99.90
34147;DHT22;20423;49.448;9.056;2023-08-01T05:12:53;14.80;99.90
34147;DHT22;20423;49.448;9.056;2023-08-01T05:15:18;14.80;99.90
34147;DHT22;20423;49.448;9.056;2023-08-01T05:17:44;14.80;99.90
34147;DHT22;20423;49.448;9.056;2023-08-01T05:20:09;14.80;99.90
34147;DHT22;20423;49.448;9.056;2023-08-01T05:22:35;14.70;99.90
34147;DHT22;20423;49.448;9.056;2023-08-01T05:25:01;14.70;99.90
34147;DHT22;20423;49.448;9.056;2023-08-01T05:27:27;14.80;99.90
34147;DHT22;20423;49.448;9.056;2023-08-01T05:29:53;14.80;99.90
34147;DHT22;20423;49.448;9.056;2023-08-01T05:32:18;14.70;99.90
34147;DHT22;20423;49.448;9.056;2023-08-01T05:34:44;14.60;99.90
34147;DHT22;20423;49.448;9.056;2023-08-01T05:37:09;14.70;99.90
34147;DHT22;20423;49.448;9.056;2023-08-01T05:39:35;14.60;99.90
34147;DHT22;20423;49.448;9.056;2023-08-01T05:42:01;14.60;99.90
34147;DHT22;20423;49.448;9.056;2023-08-01T05:44:27;14.60;99.90
34147;DHT22;20423;49.448;9.056;2023-08-01T05:46:52;14.60;99.90
34147;DHT22;20423;49.448;9.056;2023-08-01T05:49:18;14.50;99.90
34147;DHT22;20423;49.448;9.056;2023-08-01T05:51:43;14.40;99.90
34147;DHT22;20423;49.448;9.056;2023-08-01T05:54:09;14.40;99.90
34147;DHT22;20423;49.448;9.056;2023-08-01T05:56:35;14.40;99.90
34147;DHT22;20423;49.448;9.056;2023-08-01T05:59:00;14.40;99.90
34147;DHT22;20423;49.448;9.056;2023-08-01T06:01:26;14.40;99.90
34147;DHT22;20423;49.448;9.056;2023-08-01T06:03:52;14.30;99.90
34147;DHT22;20423;49.448;9.056;2023-08-01T06:06:17;14.30;99.90
34147;DHT22;20423;49.448;9.056;2023-08-01T06:08:43;14.30;99.90
34147;DHT22;20423;49.448;9.056;2023-08-01T06:11:09;14.30;99.90
34147;DHT22;20423;49.448;9.056;2023-08-01T06:13:35;14.20;99.90
34147;DHT22;20423;49.448;9.056;2023-08-01T06:16:00;14.20;99.90
34147;DHT22;20423;49.448;9.056;2023-08-01T06:18:26;14.20;99.90
34147;DHT22;20423;49.448;9.056;2023-08-01T06:20:51;14.20;99.90
34147;DHT22;20423;49.448;9.056;2023-08-01T06:23:20;14.20;99.90
34147;DHT22;20423;49.448;9.056;2023-08-01T06:25:46;14.20;99.90
34147;DHT22;20423;49.448;9.056;2023-08-01T06:28:11;14.20;99.90
34147;DHT22;20423;49.448;9.056;2023-08-01T06:30:37;14.20;99.90
34147;DHT22;20423;49.448;9.056;2023-08-01T06:33:03;14.20;99.90
34147;DHT22;20423;49.448;9.056;2023-08-01T06:35:28;14.20;99.90
34147;DHT22;20423;49.448;9.056;2023-08-01T06:37:54;14.20;99.90
34147;DHT22;20423;49.448;9.056;2023-08-01T06:40:20;14.30;99.90
34147;DHT22;20423;49.448;9.056;2023-08-01T06:42:45;14.30;99.90
34147;DHT22;20423;49.448;9.056;2023-08-01T06:45:11;14.30;99.90
34147;DHT22;20423;49.448;9.056;2023-08-01T06:47:37;14.40;99.90
34147;DHT22;20423;49.448;9.056;2023-08-01T06:50:03;14.40;99.90
34147;DHT22;20423;49.448;9.056;2023-08-01T06:52:30;14.40;99.90
34147;DHT22;20423;49.448;9.056;2023-08-01T06:54:55;14.40;99.90
34147;DHT22;20423;49.448;9.056;2023-08-01T06:57:21;14.40;99.90
34147;DHT22;20423;49.448;9.056;2023-08-01T06:59:47;14.40;99.90
34147;DHT22;20423;49.448;9.056;2023-08-01T07:02:12;14.40;99.90
34147;DHT22;20423;49.448;9.056;2023-08-01T07:04:38;14.40;99.90
34147;DHT22;20423;49.448;9.056;2023-08-01T07:07:04;14.50;99.90
34147;DHT22;20423;49.448;9.056;2023-08-01T07:09:29;14.50;99.90
34147;DHT22;20423;49.448;9.056;2023-08-01T07:11:55;14.60;99.90
34147;DHT22;20423;49.448;9.056;2023-08-01T07:14:20;14.60;99.90
34147;DHT22;20423;49.448;9.056;2023-08-01T07:16:47;14.50;99.90
34147;DHT22;20423;49.448;9.056;2023-08-01T07:19:12;14.50;99.90
34147;DHT22;20423;49.448;9.056;2023-08-01T07:21:38;14.60;99.90
34147;DHT22;20423;49.448;9.056;2023-08-01T07:24:04;14.60;99.90
34147;DHT22;20423;49.448;9.056;2023-08-01T07:26:30;14.60;99.90
34147;DHT22;20423;49.448;9.056;2023-08-01T07:28:55;14.60;99.90
34147;DHT22;20423;49.448;9.056;2023-08-01T07:31:21;14.60;99.90
34147;DHT22;20423;49.448;9.056;2023-08-01T07:33:47;14.60;99.90
34147;DHT22;20423;49.448;9.056;2023-08-01T07:36:12;14.60;99.90
34147;DHT22;20423;49.448;9.056;2023-08-01T07:38:38;14.70;99.90
34147;DHT22;20423;49.448;9.056;2023-08-01T07:41:07;14.70;99.90
34147;DHT22;20423;49.448;9.056;2023-08-01T07:43:33;14.70;99.90
34147;DHT22;20423;49.448;9.056;2023-08-01T07:45:59;14.70;99.90
34147;DHT22;20423;49.448;9.056;2023-08-01T07:48:24;14.70;99.90
34147;DHT22;20423;49.448;9.056;2023-08-01T07:50:53;14.80;99.90
34147;DHT22;20423;49.448;9.056;2023-08-01T07:53:18;14.80;99.90
34147;DHT22;20423;49.448;9.056;2023-08-01T07:55:44;14.80;99.90
34147;DHT22;20423;49.448;9.056;2023-08-01T07:58:10;14.80;99.90
34147;DHT22;20423;49.448;9.056;2023-08-01T08:00:35;14.80;99.90
34147;DHT22;20423;49.448;9.056;2023-08-01T08:03:01;14.80;99.90
34147;DHT22;20423;49.448;9.056;2023-08-01T08:05:27;14.80;99.90
34147;DHT22;20423;49.448;9.056;2023-08-01T08:07:53;14.80;99.90
34147;DHT22;20423;49.448;9.056;2023-08-01T08:10:18;14.80;99.90
34147;DHT22;20423;49.448;9.056;2023-08-01T08:12:44;14.80;99.90
34147;DHT22;20423;49.448;9.056;2023-08-01T08:15:10;14.80;99.90
34147;DHT22;20423;49.448;9.056;2023-08-01T08:17:35;14.80;99.90
34147;DHT22;20423;49.448;9.056;2023-08-01T08:20:01;14.80;99.90
34147;DHT22;20423;49.448;9.056;2023-08-01T08:22:27;14.80;99.90
34147;DHT22;20423;49.448;9.056;2023-08-01T08:24:53;14.80;99.90
34147;DHT22;20423;49.448;9.056;2023-08-01T08:27:18;14.90;99.90
34147;DHT22;20423;49.448;9.056;2023-08-01T08:30:05;14.80;99.90
34147;DHT22;20423;49.448;9.056;2023-08-01T08:32:31;14.80;99.90
34147;DHT22;20423;49.448;9.056;2023-08-01T08:34:56;14.80;99.90
34147;DHT22;20423;49.448;9.056;2023-08-01T08:37:22;14.80;99.90
34147;DHT22;20423;49.448;9.056;2023-08-01T08:39:48;14.90;99.90
34147;DHT22;20423;49.448;9.056;2023-08-01T08:42:13;15.20;99.90
34147;DHT22;20423;49.448;9.056;2023-08-01T08:44:42;15.50;99.90
34147;DHT22;20423;49.448;9.056;2023-08-01T08:47:08;16.10;99.90
34147;DHT22;20423;49.448;9.056;2023-08-01T08:49:35;16.80;99.90
34147;DHT22;20423;49.448;9.056;2023-08-01T08:52:02;17.00;99.90
34147;DHT22;20423;49.448;9.056;2023-08-01T08:54:28;16.80;99.90
34147;DHT22;20423;49.448;9.056;2023-08-01T08:56:55;16.80;99.90
34147;DHT22;20423;49.448;9.056;2023-08-01T08:59:21;16.80;99.90
34147;DHT22;20423;49.448;9.056;2023-08-01T09:01:46;16.70;99.90
34147;DHT22;20423;49.448;9.056;2023-08-01T09:04:12;16.60;99.90
34147;DHT22;20423;49.448;9.056;2023-08-01T09:06:45;16.30;99.90
34147;DHT22;20423;49.448;9.056;2023-08-01T09:09:11;16.00;99.90
34147;DHT22;20423;49.448;9.056;2023-08-01T09:11:38;16.10;99.90
34147;DHT22;20423;49.448;9.056;2023-08-01T09:14:05;16.00;99.90
34147;DHT22;20423;49.448;9.056;2023-08-01T09:16:32;15.90;99.90
34147;DHT22;20423;49.448;9.056;2023-08-01T09:18:58;15.80;99.90
34147;DHT22;20423;49.448;9.056;2023-08-01T09:21:23;15.70;99.90
34147;DHT22;20423;49.448;9.056;2023-08-01T09:23:49;15.60;99.90
34147;DHT22;20423;49.448;9.056;2023-08-01T09:26:19;15.50;99.90
34147;DHT22;20423;49.448;9.056;2023-08-01T09:28:55;15.60;99.90
34147;DHT22;20423;49.448;9.056;2023-08-01T09:31:25;15.40;99.90
34147;DHT22;20423;49.448;9.056;2023-08-01T09:33:51;14.70;99.90
34147;DHT22;20423;49.448;9.056;2023-08-01T09:36:20;14.20;99.90
34147;DHT22;20423;49.448;9.056;2023-08-01T09:38:46;13.90;99.90
34147;DHT22;20423;49.448;9.056;2023-08-01T09:41:16;13.90;99.90
34147;DHT22;20423;49.448;9.056;2023-08-01T09:43:42;14.00;99.90
34147;DHT22;20423;49.448;9.056;2023-08-01T09:46:08;14.10;99.90
34147;DHT22;20423;49.448;9.056;2023-08-01T09:48:34;14.30;99.90
34147;DHT22;20423;49.448;9.056;2023-08-01T09:51:06;14.60;99.90
34147;DHT22;20423;49.448;9.056;2023-08-01T09:53:32;14.80;99.90
34147;DHT22;20423;49.448;9.056;2023-08-01T09:56:01;15.40;99.90
34147;DHT22;20423;49.448;9.056;2023-08-01T09:58:31;16.00;99.90
34147;DHT22;20423;49.448;9.056;2023-08-01T10:00:57;16.80;99.90
34147;DHT22;20423;49.448;9.056;2023-08-01T10:03:23;17.70;99.90
34147;DHT22;20423;49.448;9.056;2023-08-01T10:05:49;18.30;99.90
34147;DHT22;20423;49.448;9.056;2023-08-01T10:08:18;18.50;99.90
34147;DHT22;20423;49.448;9.056;2023-08-01T10:10:45;18.40;99.90
34147;DHT22;20423;49.448;9.056;2023-08-01T10:13:12;18.80;99.90
34147;DHT22;20423;49.448;9.056;2023-08-01T10:15:38;18.40;99.90
34147;DHT22;20423;49.448;9.056;2023-08-01T10:18:04;18.20;99.90
34147;DHT22;20423;49.448;9.056;2023-08-01T10:20:30;18.10;99.90
34147;DHT22;20423;49.448;9.056;2023-08-01T10:22:56;18.00;99.90
34147;DHT22;20423;49.448;9.056;2023-08-01T10:25:22;18.00;99.90
34147;DHT22;20423;49.448;9.056;2023-08-01T10:28:01;18.10;99.90
34147;DHT22;20423;49.448;9.056;2023-08-01T10:30:28;18.20;99.90
34147;DHT22;20423;49.448;9.056;2023-08-01T10:32:54;18.40;99.90
34147;DHT22;20423;49.448;9.056;2023-08-01T10:35:42;18.90;99.90
34147;DHT22;20423;49.448;9.056;2023-08-01T10:38:08;18.90;99.90
34147;DHT22;20423;49.448;9.056;2023-08-01T10:40:37;18.70;99.90
34147;DHT22;20423;49.448;9.056;2023-08-01T10:43:04;18.20;99.90
34147;DHT22;20423;49.448;9.056;2023-08-01T10:45:29;18.30;99.90
34147;DHT22;20423;49.448;9.056;2023-08-01T10:48:16;18.60;99.90
34147;DHT22;20423;49.448;9.056;2023-08-01T10:50:41;18.90;99.90
34147;DHT22;20423;49.448;9.056;2023-08-01T10:53:08;19.20;99.90
34147;DHT22;20423;49.448;9.056;2023-08-01T10:55:43;19.50;99.90
34147;DHT22;20423;49.448;9.056;2023-08-01T10:58:09;19.70;99.90
34147;DHT22;20423;49.448;9.056;2023-08-01T11:00:35;19.60;99.90
34147;DHT22;20423;49.448;9.056;2023-08-01T11:03:01;19.30;99.90
34147;DHT22;20423;49.448;9.056;2023-08-01T11:05:26;19.50;99.90
34147;DHT22;20423;49.448;9.056;2023-08-01T11:08:01;19.30;99.90
34147;DHT22;20423;49.448;9.056;2023-08-01T11:10:28;19.20;99.90
34147;DHT22;20423;49.448;9.056;2023-08-01T11:12:54;19.70;99.90
34147;DHT22;20423;49.448;9.056;2023-08-01T11:15:19;19.70;99.90
34147;DHT22;20423;49.448;9.056;2023-08-01T11:20:46;20.10;99.90
34147;DHT22;20423;49.448;9.056;2023-08-01T11:23:12;20.00;99.90
34147;DHT22;20423;49.448;9.056;2023-08-01T11:25:41;20.40;99.90
34147;DHT22;20423;49.448;9.056;2023-08-01T11:28:09;21.10;99.90
34147;DHT22;20423;49.448;9.056;2023-08-01T11:30:35;20.90;99.90
34147;DHT22;20423;49.448;9.056;2023-08-01T11:33:01;20.30;99.90
34147;DHT22;20423;49.448;9.056;2023-08-01T11:35:28;20.20;99.90
34147;DHT22;20423;49.448;9.056;2023-08-01T11:40:56;18.70;99.90
34147;DHT22;20423;49.448;9.056;2023-08-01T11:43:22;18.80;99.90
34147;DHT22;20423;49.448;9.056;2023-08-01T11:45:48;18.80;99.90
34147;DHT22;20423;49.448;9.056;2023-08-01T11:48:14;18.70;99.90
34147;DHT22;20423;49.448;9.056;2023-08-01T11:50:40;18.10;99.90
34147;DHT22;20423;49.448;9.056;2023-08-01T11:53:05;17.30;99.90
34147;DHT22;20423;49.448;9.056;2023-08-01T11:55:31;16.70;99.90
34147;DHT22;20423;49.448;9.056;2023-08-01T11:58:00;16.40;99.90
34147;DHT22;20423;49.448;9.056;2023-08-01T12:00:27;16.50;99.90
34147;DHT22;20423;49.448;9.056;2023-08-01T12:03:07;16.90;99.90
34147;DHT22;20423;49.448;9.056;2023-08-01T12:05:33;17.70;99.90
34147;DHT22;20423;49.448;9.056;2023-08-01T12:08:07;18.40;99.90
34147;DHT22;20423;49.448;9.056;2023-08-01T12:10:40;18.80;99.90
34147;DHT22;20423;49.448;9.056;2023-08-01T12:13:06;19.10;99.90
34147;DHT22;20423;49.448;9.056;2023-08-01T12:15:31;19.20;99.90
34147;DHT22;20423;49.448;9.056;2023-08-01T12:17:57;19.40;99.90
34147;DHT22;20423;49.448;9.056;2023-08-01T12:20:22;19.40;99.90
34147;DHT22;20423;49.448;9.056;2023-08-01T12:25:42;19.60;99.90
34147;DHT22;20423;49.448;9.056;2023-08-01T12:28:07;19.90;99.90
34147;DHT22;20423;49.448;9.056;2023-08-01T12:30:33;20.00;99.90
34147;DHT22;20423;49.448;9.056;2023-08-01T12:32:58;19.90;99.90
34147;DHT22;20423;49.448;9.056;2023-08-01T12:35:26;19.30;99.90
34147;DHT22;20423;49.448;9.056;2023-08-01T12:37:51;19.00;99.90
34147;DHT22;20423;49.448;9.056;2023-08-01T12:40:18;18.70;99.90
34147;DHT22;20423;49.448;9.056;2023-08-01T12:42:43;18.70;99.90
34147;DHT22;20423;49.448;9.056;2023-08-01T12:45:09;18.60;99.90
34147;DHT22;20423;49.448;9.056;2023-08-01T12:47:38;18.70;99.90
34147;DHT22;20423;49.448;9.056;2023-08-01T12:50:04;18.60;99.90
34147;DHT22;20423;49.448;9.056;2023-08-01T12:52:29;18.80;99.90
34147;DHT22;20423;49.448;9.056;2023-08-01T12:54:55;18.90;99.90
34147;DHT22;20423;49.448;9.056;2023-08-01T12:57:21;19.50;99.90
34147;DHT22;20423;49.448;9.056;2023-08-01T12:59:46;20.50;99.90
34147;DHT22;20423;49.448;9.056;2023-08-01T13:02:13;21.20;99.90
34147;DHT22;20423;49.448;9.056;2023-08-01T13:04:39;21.10;99.90
34147;DHT22;20423;49.448;9.056;2023-08-01T13:07:05;21.50;99.90
34147;DHT22;20423;49.448;9.056;2023-08-01T13:09:31;22.20;99.90
34147;DHT22;20423;49.448;9.056;2023-08-01T13:12:00;22.60;99.90
34147;DHT22;20423;49.448;9.056;2023-08-01T13:14:26;22.60;99.90
34147;DHT22;20423;49.448;9.056;2023-08-01T13:16:51;22.30;99.90
34147;DHT22;20423;49.448;9.056;2023-08-01T13:19:17;22.00;99.90
34147;DHT22;20423;49.448;9.056;2023-08-01T13:21:43;21.40;99.90
34147;DHT22;20423;49.448;9.056;2023-08-01T13:24:09;21.10;99.90
34147;DHT22;20423;49.448;9.056;2023-08-01T13:26:34;20.90;99.90
34147;DHT22;20423;49.448;9.056;2023-08-01T13:29:01;20.50;99.90
34147;DHT22;20423;49.448;9.056;2023-08-01T13:31:27;20.30;99.90
34147;DHT22;20423;49.448;9.056;2023-08-01T13:33:53;20.20;99.90
34147;DHT22;20423;49.448;9.056;2023-08-01T13:36:19;20.30;99.90
34147;DHT22;20423;49.448;9.056;2023-08-01T13:38:44;20.40;99.90
34147;DHT22;20423;49.448;9.056;2023-08-01T13:41:10;20.80;99.90
34147;DHT22;20423;49.448;9.056;2023-08-01T13:43:35;20.70;99.90
34147;DHT22;20423;49.448;9.056;2023-08-01T13:46:07;20.60;99.90
34147;DHT22;20423;49.448;9.056;2023-08-01T13:48:33;20.50;99.90
34147;DHT22;20423;49.448;9.056;2023-08-01T13:50:58;20.50;99.90
34147;DHT22;20423;49.448;9.056;2023-08-01T13:53:24;20.60;99.90
34147;DHT22;20423;49.448;9.056;2023-08-01T13:55:49;20.50;99.90
34147;DHT22;20423;49.448;9.056;2023-08-01T13:58:15;21.10;99.90
34147;DHT22;20423;49.448;9.056;2023-08-01T14:00:41;21.30;99.90
34147;DHT22;20423;49.448;9.056;2023-08-01T14:03:22;20.90;99.90
34147;DHT22;20423;49.448;9.056;2023-08-01T14:05:47;21.00;99.90
34147;DHT22;20423;49.448;9.056;2023-08-01T14:08:13;21.20;99.90
34147;DHT22;20423;49.448;9.056;2023-08-01T14:10:38;21.10;99.90
34147;DHT22;20423;49.448;9.056;2023-08-01T14:13:04;21.20;99.90
34147;DHT22;20423;49.448;9.056;2023-08-01T14:15:29;21.70;99.90
34147;DHT22;20423;49.448;9.056;2023-08-01T14:17:55;21.50;99.90
34147;DHT22;20423;49.448;9.056;2023-08-01T14:20:21;21.50;99.90
34147;DHT22;20423;49.448;9.056;2023-08-01T14:22:46;21.20;99.90
34147;DHT22;20423;49.448;9.056;2023-08-01T14:25:12;20.90;99.90
34147;DHT22;20423;49.448;9.056;2023-08-01T14:27:37;20.60;99.90
34147;DHT22;20423;49.448;9.056;2023-08-01T14:30:03;20.70;99.90
34147;DHT22;20423;49.448;9.056;2023-08-01T14:32:31;20.80;99.90
34147;DHT22;20423;49.448;9.056;2023-08-01T14:34:56;21.20;99.90
34147;DHT22;20423;49.448;9.056;2023-08-01T14:37:22;21.50;99.90
34147;DHT22;20423;49.448;9.056;2023-08-01T14:39:49;21.70;99.90
34147;DHT22;20423;49.448;9.056;2023-08-01T14:42:15;21.60;99.90
34147;DHT22;20423;49.448;9.056;2023-08-01T14:44:41;21.60;99.90
34147;DHT22;20423;49.448;9.056;2023-08-01T14:47:07;21.50;99.90
34147;DHT22;20423;49.448;9.056;2023-08-01T14:52:26;20.70;99.90
34147;DHT22;20423;49.448;9.056;2023-08-01T14:54:52;20.80;99.90
34147;DHT22;20423;49.448;9.056;2023-08-01T14:57:18;20.80;99.90
34147;DHT22;20423;49.448;9.056;2023-08-01T14:59:43;20.60;99.90
34147;DHT22;20423;49.448;9.056;2023-08-01T15:02:09;20.40;99.90
34147;DHT22;20423;49.448;9.056;2023-08-01T15:04:34;20.30;99.90
34147;DHT22;20423;49.448;9.056;2023-08-01T15:07:00;20.60;99.90
34147;DHT22;20423;49.448;9.056;2023-08-01T15:09:26;20.90;99.90
34147;DHT22;20423;49.448;9.056;2023-08-01T15:11:52;21.20;99.90
34147;DHT22;20423;49.448;9.056;2023-08-01T15:14:17;20.90;99.90
34147;DHT22;20423;49.448;9.056;2023-08-01T15:16:43;20.30;99.90
34147;DHT22;20423;49.448;9.056;2023-08-01T15:19:08;20.60;99.90
34147;DHT22;20423;49.448;9.056;2023-08-01T15:21:34;21.30;99.90
34147;DHT22;20423;49.448;9.056;2023-08-01T15:24:00;21.90;99.90
34147;DHT22;20423;49.448;9.056;2023-08-01T15:26:25;22.20;99.90
34147;DHT22;20423;49.448;9.056;2023-08-01T15:28:51;22.10;99.90
34147;DHT22;20423;49.448;9.056;2023-08-01T15:31:17;21.90;99.90
34147;DHT22;20423;49.448;9.056;2023-08-01T15:33:42;21.20;99.90
34147;DHT22;20423;49.448;9.056;2023-08-01T15:36:08;21.00;99.90
34147;DHT22;20423;49.448;9.056;2023-08-01T15:38:35;20.80;99.90
34147;DHT22;20423;49.448;9.056;2023-08-01T15:41:01;20.50;99.90
34147;DHT22;20423;49.448;9.056;2023-08-01T15:43:37;20.10;99.90
34147;DHT22;20423;49.448;9.056;2023-08-01T15:46:03;20.00;99.90
34147;DHT22;20423;49.448;9.056;2023-08-01T15:48:30;19.90;99.90
34147;DHT22;20423;49.448;9.056;2023-08-01T15:50:56;19.90;99.90
34147;DHT22;20423;49.448;9.056;2023-08-01T15:53:21;20.10;99.90
34147;DHT22;20423;49.448;9.056;2023-08-01T15:55:53;20.00;99.90